createdAt,value
2019-03-22T00:00:04.350Z,103234.66
2019-03-22T00:02:34.496Z,103228.36
2019-03-22T00:05:04.698Z,103217.16
2019-03-22T00:07:34.790Z,103213.13
2019-03-22T00:10:05.368Z,103208.22
2019-03-22T00:12:35.722Z,103205.11
2019-03-22T00:15:06.412Z,103214.98
2019-03-22T00:17:36.962Z,103214.98
2019-03-22T00:20:07.263Z,103213.17
2019-03-22T00:22:37.414Z,103201.98
2019-03-22T00:25:07.535Z,103205.59
2019-03-22T00:27:38.053Z,103212.72
2019-03-22T00:30:08.276Z,103214.98
2019-03-22T00:32:38.449Z,103212.31
2019-03-22T00:35:08.681Z,103210.09
2019-03-22T00:37:38.752Z,103214.06
2019-03-22T00:40:09.173Z,103207.34
2019-03-22T00:42:39.333Z,103212.31
2019-03-22T00:45:09.514Z,103210.09
2019-03-22T00:47:39.600Z,103214.58
2019-03-22T00:50:09.694Z,103215.92
2019-03-22T00:52:39.842Z,103215.47
2019-03-22T00:55:10.493Z,103216.35
2019-03-22T00:57:40.620Z,103212.38
2019-03-22T01:00:11.030Z,103211.91
2019-03-22T01:02:41.196Z,103211.49
2019-03-22T01:05:11.538Z,103217.75
2019-03-22T01:07:41.624Z,103211.03
2019-03-22T01:10:11.836Z,103202.98
2019-03-22T01:12:41.995Z,103209.70
2019-03-22T01:15:12.141Z,103203.45
2019-03-22T01:17:42.493Z,103205.67
2019-03-22T01:20:12.620Z,103208.82
2019-03-22T01:22:42.732Z,103203.86
2019-03-22T01:25:13.123Z,103211.97
2019-03-22T01:27:43.285Z,103207.49
2019-03-22T01:30:14.273Z,103199.00
2019-03-22T01:32:44.378Z,103194.06
2019-03-22T01:35:14.493Z,103187.39
2019-03-22T01:37:46.237Z,103192.77
2019-03-22T01:40:16.565Z,103192.30
2019-03-22T01:42:46.652Z,103188.73
2019-03-22T01:45:16.750Z,103187.82
2019-03-22T01:47:46.964Z,103179.77
2019-03-22T01:50:17.060Z,103179.77
2019-03-22T01:52:47.178Z,103184.25
2019-03-22T01:55:17.564Z,103193.64
2019-03-22T01:57:53.460Z,103201.72
2019-03-22T02:00:19.963Z,103200.38
2019-03-22T02:02:50.153Z,103199.91
2019-03-22T02:05:20.423Z,103204.41
2019-03-22T02:07:50.859Z,103200.84
2019-03-22T02:10:21.333Z,103203.52
2019-03-22T02:12:51.473Z,103206.20
2019-03-22T02:15:21.612Z,103202.59
2019-03-22T02:17:51.765Z,103198.61
2019-03-22T02:20:21.915Z,103197.27
2019-03-22T02:22:52.097Z,103197.27
2019-03-22T02:25:22.158Z,103196.39
2019-03-22T02:28:03.497Z,103184.73
2019-03-22T02:30:24.282Z,103188.75
2019-03-22T02:32:54.411Z,103185.19
2019-03-22T02:35:28.909Z,103190.55
2019-03-22T02:37:56.391Z,103191.44
2019-03-22T02:40:26.550Z,103190.09
2019-03-22T02:42:56.831Z,103178.47
2019-03-22T02:45:26.901Z,103166.39
2019-03-22T02:48:16.085Z,103163.24
2019-03-22T02:51:04.858Z,103164.16
2019-03-22T02:53:35.432Z,103157.88
2019-03-22T02:56:06.107Z,103163.24
2019-03-22T02:58:36.297Z,103153.02
2019-03-22T03:01:06.449Z,103155.19
2019-03-22T03:03:36.562Z,103144.44
2019-03-22T03:06:06.758Z,103141.80
2019-03-22T03:08:36.903Z,103146.71
2019-03-22T03:11:07.057Z,103148.52
2019-03-22T03:13:37.204Z,103142.27
2019-03-22T03:16:07.730Z,103139.12
2019-03-22T03:18:38.209Z,103133.75
2019-03-22T03:21:08.365Z,103131.08
2019-03-22T03:23:38.822Z,103127.91
2019-03-22T03:26:08.959Z,103125.23
2019-03-22T03:28:39.041Z,103122.13
2019-03-22T03:31:09.180Z,103123.47
2019-03-22T03:33:39.242Z,103117.64
2019-03-22T03:36:09.328Z,103109.17
2019-03-22T03:38:39.481Z,103110.05
2019-03-22T03:41:09.847Z,103102.88
2019-03-22T03:43:40.318Z,103099.30
2019-03-22T03:46:10.459Z,103093.06
2019-03-22T03:48:40.613Z,103093.00
2019-03-22T03:51:10.753Z,103086.80
2019-03-22T03:53:40.882Z,103094.40
2019-03-22T03:56:10.928Z,103092.59
2019-03-22T03:58:52.287Z,103094.81
2019-03-22T04:01:12.934Z,103093.06
2019-03-22T04:03:43.089Z,103100.23
2019-03-22T04:06:13.613Z,103101.13
2019-03-22T04:08:43.817Z,103100.67
2019-03-22T04:11:13.960Z,103105.63
2019-03-22T04:13:44.041Z,103107.44
2019-03-22T04:16:14.189Z,103110.12
2019-03-22T04:18:44.288Z,103108.77
2019-03-22T04:21:14.438Z,103107.89
2019-03-22T04:23:44.662Z,103115.95
2019-03-22T04:26:15.013Z,103120.40
2019-03-22T04:28:45.197Z,103118.64
2019-03-22T04:31:15.389Z,103116.38
2019-03-22T04:33:45.454Z,103124.01
2019-03-22T04:36:15.675Z,103123.56
2019-03-22T04:38:45.877Z,103125.35
2019-03-22T04:41:16.300Z,103127.59
2019-03-22T04:43:46.450Z,103117.31
2019-03-22T04:46:16.626Z,103121.34
2019-03-22T04:48:47.035Z,103118.66
2019-03-22T04:51:17.291Z,103121.80
2019-03-22T04:53:51.451Z,103116.43
2019-03-22T04:56:21.599Z,103116.43
2019-03-22T04:58:51.662Z,103124.03
2019-03-22T05:01:22.048Z,103116.43
2019-03-22T05:03:52.754Z,103115.97
2019-03-22T05:06:22.928Z,103115.50
2019-03-22T05:08:53.078Z,103116.43
2019-03-22T05:11:23.154Z,103116.43
2019-03-22T05:13:53.226Z,103119.53
2019-03-22T05:16:23.408Z,103121.34
2019-03-22T05:18:53.583Z,103126.23
2019-03-22T05:21:24.746Z,103124.42
2019-03-22T05:23:54.935Z,103123.55
2019-03-22T05:26:25.015Z,103123.55
2019-03-22T05:28:55.173Z,103120.40
2019-03-22T05:32:09.209Z,103120.88
2019-03-22T05:34:39.893Z,103122.67
2019-03-22T05:37:09.983Z,103117.78
2019-03-22T05:39:40.077Z,103124.91
2019-03-22T05:42:10.189Z,103120.46
2019-03-22T05:44:40.235Z,103124.03
2019-03-22T05:47:10.377Z,103121.80
2019-03-22T05:49:40.847Z,103124.95
2019-03-22T05:52:11.026Z,103121.80
2019-03-22T05:54:41.170Z,103122.69
2019-03-22T05:57:13.699Z,103117.78
2019-03-22T05:59:43.551Z,103113.30
2019-03-22T06:02:13.817Z,103114.21
2019-03-22T06:04:43.920Z,103112.87
2019-03-22T06:07:13.990Z,103105.22
2019-03-22T06:09:44.154Z,103108.37
2019-03-22T06:12:14.272Z,103108.37
2019-03-22T06:14:44.935Z,103107.91
2019-03-22T06:17:15.008Z,103108.33
2019-03-22T06:19:45.168Z,103108.37
2019-03-22T06:22:15.271Z,103108.37
2019-03-22T06:24:45.463Z,103112.87
2019-03-22T06:27:15.667Z,103112.42
2019-03-22T06:29:54.081Z,103107.93
2019-03-22T06:32:17.559Z,103106.16
2019-03-22T06:34:47.732Z,103108.84
2019-03-22T06:37:17.812Z,103110.59
2019-03-22T06:39:47.988Z,103111.94
2019-03-22T06:42:18.357Z,103106.16
2019-03-22T06:44:48.823Z,103104.81
2019-03-22T06:47:19.050Z,103109.25
2019-03-22T06:49:49.552Z,103108.84
2019-03-22T06:52:19.705Z,103111.08
2019-03-22T06:54:49.894Z,103114.69
2019-03-22T06:57:20.054Z,103107.52
2019-03-22T06:59:50.480Z,103107.52
2019-03-22T07:02:20.552Z,103111.13
2019-03-22T07:04:50.997Z,103115.56
2019-03-22T07:07:21.099Z,103116.45
2019-03-22T07:09:51.260Z,103111.54
2019-03-22T07:12:21.329Z,103115.56
2019-03-22T07:14:51.406Z,103110.20
2019-03-22T07:17:21.561Z,103112.88
2019-03-22T07:19:51.646Z,103108.86
2019-03-22T07:22:21.785Z,103105.70
2019-03-22T07:24:51.926Z,103100.80
2019-03-22T07:27:22.007Z,103096.36
2019-03-22T07:29:52.070Z,103098.11
2019-03-22T07:32:22.569Z,103095.02
2019-03-22T07:34:52.663Z,103096.77
2019-03-22T07:37:22.904Z,103099.04
2019-03-22T07:39:52.990Z,103105.30
2019-03-22T07:42:23.471Z,103103.07
2019-03-22T07:44:53.707Z,103099.04
2019-03-22T07:47:23.805Z,103101.72
2019-03-22T07:49:53.949Z,103097.23
2019-03-22T07:52:24.035Z,103100.38
2019-03-22T07:54:54.177Z,103094.55
2019-03-22T07:57:24.347Z,103099.92
2019-03-22T07:59:54.450Z,103095.02
2019-03-22T08:02:25.769Z,103103.48
2019-03-22T08:04:55.961Z,103100.33
2019-03-22T08:07:26.041Z,103098.99
2019-03-22T08:09:56.350Z,103094.09
2019-03-22T08:12:26.664Z,103096.30
2019-03-22T08:14:56.854Z,103094.97
2019-03-22T08:17:26.965Z,103096.77
2019-03-22T08:19:57.424Z,103091.40
2019-03-22T08:22:27.743Z,103093.20
2019-03-22T08:24:57.916Z,103088.25
2019-03-22T08:27:28.400Z,103093.16
2019-03-22T08:29:58.583Z,103090.47
2019-03-22T08:32:28.991Z,103079.31
2019-03-22T08:34:59.151Z,103081.06
2019-03-22T08:37:29.232Z,103084.22
2019-03-22T08:39:59.674Z,103087.35
2019-03-22T08:42:29.820Z,103087.78
2019-03-22T08:44:59.867Z,103082.86
2019-03-22T08:47:34.350Z,103085.09
2019-03-22T08:50:01.848Z,103079.73
2019-03-22T08:52:32.307Z,103077.95
2019-03-22T08:55:02.523Z,103081.06
2019-03-22T08:57:32.930Z,103085.09
2019-03-22T09:00:03.072Z,103086.02
2019-03-22T09:02:33.218Z,103085.55
2019-03-22T09:05:03.390Z,103084.20
2019-03-22T09:07:33.587Z,103082.39
2019-03-22T09:10:03.750Z,103075.22
2019-03-22T09:12:34.659Z,103074.75
2019-03-22T09:15:05.110Z,103076.09
2019-03-22T09:17:35.948Z,103079.25
2019-03-22T09:20:06.406Z,103073.41
2019-03-22T09:22:36.583Z,103078.78
2019-03-22T09:25:06.830Z,103079.23
2019-03-22T09:27:37.003Z,103082.81
2019-03-22T09:30:07.924Z,103077.01
2019-03-22T09:32:38.480Z,103072.05
2019-03-22T09:35:08.646Z,103073.86
2019-03-22T09:37:39.211Z,103076.09
2019-03-22T09:40:09.277Z,103078.75
2019-03-22T09:42:39.680Z,103076.95
2019-03-22T09:45:09.839Z,103069.77
2019-03-22T09:47:39.937Z,103066.14
2019-03-22T09:50:10.214Z,103063.45
2019-03-22T09:52:40.426Z,103055.87
2019-03-22T09:55:13.718Z,103054.52
2019-03-22T09:57:42.340Z,103055.40
2019-03-22T10:00:14.117Z,103049.16
2019-03-22T10:02:44.227Z,103046.47
2019-03-22T10:05:14.381Z,103049.16
2019-03-22T10:07:44.541Z,103037.06
2019-03-22T10:10:14.744Z,103033.91
2019-03-22T10:12:44.955Z,103037.06
2019-03-22T10:15:33.140Z,103033.02
2019-03-22T10:18:03.596Z,103024.91
2019-03-22T10:20:34.073Z,103023.96
2019-03-22T10:23:04.184Z,103018.10
2019-03-22T10:25:34.387Z,103021.19
2019-03-22T10:28:04.472Z,103018.01
2019-03-22T10:30:34.851Z,103021.09
2019-03-22T10:33:05.135Z,103010.33
2019-03-22T10:35:35.279Z,103012.08
2019-03-22T10:38:14.381Z,103008.98
2019-03-22T10:40:37.345Z,103008.05
2019-03-22T10:43:07.465Z,103008.11
2019-03-22T10:45:37.609Z,103000.45
2019-03-22T10:48:07.742Z,103004.95
2019-03-22T10:50:37.840Z,102999.58
2019-03-22T10:53:08.049Z,102995.08
2019-03-22T10:55:38.200Z,102995.08
2019-03-22T10:58:20.341Z,102989.24
2019-03-22T11:00:40.307Z,102989.71
2019-03-22T11:03:10.792Z,102988.37
2019-03-22T11:05:40.994Z,102986.63
2019-03-22T11:08:11.079Z,102980.33
2019-03-22T11:10:41.198Z,102981.23
2019-03-22T11:13:11.354Z,102978.08
2019-03-22T11:15:48.522Z,102970.92
2019-03-22T11:18:13.304Z,102972.27
2019-03-22T11:20:45.680Z,102965.14
2019-03-22T11:23:15.595Z,102960.23
2019-03-22T11:25:45.765Z,102956.67
2019-03-22T11:28:15.862Z,102958.02
2019-03-22T11:30:46.105Z,102952.64
2019-03-22T11:33:16.274Z,102948.61
2019-03-22T11:35:46.520Z,102946.82
2019-03-22T11:38:17.522Z,102941.91
2019-03-22T11:40:47.828Z,102938.77
2019-03-22T11:43:18.262Z,102936.95
2019-03-22T11:45:48.402Z,102931.17
2019-03-22T11:48:18.592Z,102929.80
2019-03-22T11:50:49.137Z,102923.96
2019-03-22T11:53:19.222Z,102923.09
2019-03-22T11:55:49.497Z,102920.40
2019-03-22T11:58:19.875Z,102920.40
2019-03-22T12:00:49.979Z,102910.09
2019-03-22T12:03:20.061Z,102914.12
2019-03-22T12:05:50.516Z,102907.41
2019-03-22T12:08:20.596Z,102904.28
2019-03-22T12:10:50.697Z,102893.95
2019-03-22T12:13:20.802Z,102888.11
2019-03-22T12:15:50.876Z,102887.64
2019-03-22T12:18:21.657Z,102881.39
2019-03-22T12:20:51.759Z,102879.14
2019-03-22T12:23:21.848Z,102873.31
2019-03-22T12:25:52.123Z,102866.15
2019-03-22T12:28:22.778Z,102867.94
2019-03-22T12:30:52.849Z,102856.31
2019-03-22T12:33:22.954Z,102853.16
2019-03-22T12:35:53.046Z,102850.01
2019-03-22T12:38:23.229Z,102853.56
2019-03-22T12:40:53.682Z,102838.84
2019-03-22T12:43:23.847Z,102836.16
2019-03-22T12:45:53.943Z,102833.42
2019-03-22T12:48:24.373Z,102837.45
2019-03-22T12:50:55.160Z,102836.11
2019-03-22T12:53:25.312Z,102832.08
2019-03-22T12:55:55.752Z,102825.36
2019-03-22T12:58:26.233Z,102827.58
2019-03-22T13:00:56.431Z,102816.83
2019-03-22T13:03:26.790Z,102815.49
2019-03-22T13:05:56.939Z,102812.38
2019-03-22T13:08:27.110Z,102807.00
2019-03-22T13:10:57.207Z,102804.31
2019-03-22T13:13:27.301Z,102805.13
2019-03-22T13:15:57.455Z,102798.41
2019-03-22T13:18:27.628Z,102792.16
2019-03-22T13:20:57.741Z,102789.94
2019-03-22T13:23:27.827Z,102781.88
2019-03-22T13:25:58.024Z,102786.32
2019-03-22T13:28:28.213Z,102781.88
2019-03-22T13:30:58.326Z,102776.10
2019-03-22T13:33:28.424Z,102774.23
2019-03-22T13:35:58.609Z,102771.60
2019-03-22T13:38:28.738Z,102763.95
2019-03-22T13:40:58.914Z,102761.73
2019-03-22T13:43:29.116Z,102761.27
2019-03-22T13:45:59.289Z,102750.98
2019-03-22T13:48:29.690Z,102749.64
2019-03-22T13:50:59.886Z,102746.08
2019-03-22T13:53:29.975Z,102740.24
2019-03-22T13:56:00.844Z,102740.24
2019-03-22T13:58:30.935Z,102738.48
2019-03-22T14:01:01.018Z,102740.71
2019-03-22T14:03:33.124Z,102735.74
2019-03-22T14:06:03.132Z,102728.63
2019-03-22T14:08:33.224Z,102727.75
2019-03-22T14:11:03.302Z,102729.49
2019-03-22T14:13:33.397Z,102722.78
2019-03-22T14:16:03.763Z,102723.25
2019-03-22T14:18:33.920Z,102721.44
2019-03-22T14:21:04.088Z,102716.06
2019-03-22T14:23:34.600Z,102712.97
2019-03-22T14:26:04.896Z,102712.97
2019-03-22T14:28:35.035Z,102711.16
2019-03-22T14:31:05.132Z,102714.31
2019-03-22T14:33:35.200Z,102708.00
2019-03-22T14:36:05.325Z,102700.41
2019-03-22T14:38:35.411Z,102698.59
2019-03-22T14:41:05.511Z,102696.32
2019-03-22T14:43:35.597Z,102700.70
2019-03-22T14:46:05.747Z,102695.70
2019-03-22T14:48:35.832Z,102692.98
2019-03-22T14:51:05.930Z,102691.53
2019-03-22T14:53:36.028Z,102688.88
2019-03-22T14:56:06.101Z,102687.62
2019-03-22T14:58:36.174Z,102689.86
2019-03-22T15:01:06.511Z,102687.17
2019-03-22T15:03:36.844Z,102682.73
2019-03-22T15:06:06.965Z,102680.05
2019-03-22T15:08:37.042Z,102678.71
2019-03-22T15:11:07.225Z,102677.77
2019-03-22T15:13:46.275Z,102672.87
2019-03-22T15:16:44.416Z,102676.48
2019-03-22T15:19:31.585Z,102673.80
2019-03-22T15:22:20.664Z,102672.46
2019-03-22T15:25:08.421Z,102676.48
2019-03-22T15:27:57.606Z,102675.15
2019-03-22T15:30:45.357Z,102675.58
2019-03-22T15:33:34.184Z,102669.80
2019-03-22T15:38:59.770Z,102662.23
2019-03-22T15:41:30.266Z,102660.90
2019-03-22T15:44:00.387Z,102659.55
2019-03-22T15:46:30.697Z,102664.45
2019-03-22T15:49:00.781Z,102662.21
2019-03-22T15:51:30.982Z,102655.52
2019-03-22T15:54:01.085Z,102649.68
2019-03-22T15:56:31.189Z,102651.49
2019-03-22T15:59:01.532Z,102654.63
2019-03-22T16:01:31.597Z,102655.12
2019-03-22T16:04:01.720Z,102659.99
2019-03-22T16:06:31.797Z,102656.87
2019-03-22T16:09:01.872Z,102661.77
2019-03-22T16:11:31.990Z,102655.12
2019-03-22T16:14:02.069Z,102662.23
2019-03-22T16:16:32.170Z,102664.89
2019-03-22T16:19:02.278Z,102664.02
2019-03-22T16:21:32.385Z,102665.80
2019-03-22T16:24:02.504Z,102668.48
2019-03-22T16:26:32.644Z,102674.30
2019-03-22T16:29:02.868Z,102675.64
2019-03-22T16:31:33.187Z,102675.67
2019-03-22T16:34:03.276Z,102682.39
2019-03-22T16:36:33.875Z,102673.95
2019-03-22T16:39:05.264Z,102675.30
2019-03-22T16:41:35.399Z,102674.39
2019-03-22T16:44:05.595Z,102670.74
2019-03-22T16:46:35.787Z,102677.86
2019-03-22T16:49:05.998Z,102676.05
2019-03-22T16:51:36.409Z,102679.61
2019-03-22T16:54:06.664Z,102675.58
2019-03-22T16:56:37.443Z,102674.21
2019-03-22T16:59:07.978Z,102680.46
2019-03-22T17:01:38.163Z,102683.14
2019-03-22T17:04:08.280Z,102682.68
2019-03-22T17:06:38.744Z,102678.23
2019-03-22T17:09:08.835Z,102680.08
2019-03-22T17:11:39.016Z,102679.67
2019-03-22T17:14:09.184Z,102673.42
2019-03-22T17:16:39.299Z,102681.48
2019-03-22T17:19:09.687Z,102685.95
2019-03-22T17:21:39.889Z,102687.83
2019-03-22T17:24:10.250Z,102687.85
2019-03-22T17:26:40.448Z,102695.45
2019-03-22T17:29:10.547Z,102689.61
2019-03-22T17:31:40.724Z,102699.06
2019-03-22T17:34:14.427Z,102695.94
2019-03-22T17:36:42.706Z,102700.87
2019-03-22T17:39:12.800Z,102701.78
2019-03-22T17:41:43.027Z,102700.44
2019-03-22T17:44:13.601Z,102700.44
2019-03-22T17:46:43.731Z,102695.94
2019-03-22T17:49:14.163Z,102700.03
2019-03-22T17:51:44.247Z,102705.41
2019-03-22T17:54:14.340Z,102712.59
2019-03-22T17:56:44.520Z,102711.25
2019-03-22T17:59:15.084Z,102713.02
2019-03-22T18:01:45.555Z,102716.62
2019-03-22T18:04:23.824Z,102720.67
2019-03-22T18:06:47.706Z,102720.20
2019-03-22T18:09:17.795Z,102722.89
2019-03-22T18:11:48.210Z,102725.17
2019-03-22T18:14:18.399Z,102726.98
2019-03-22T18:16:48.558Z,102736.81
2019-03-22T18:19:19.760Z,102737.75
2019-03-22T18:21:49.858Z,102742.66
2019-03-22T18:24:19.962Z,102748.03
2019-03-22T18:26:50.090Z,102745.84
2019-03-22T18:29:20.228Z,102752.12
2019-03-22T18:31:50.319Z,102753.46
2019-03-22T18:34:20.436Z,102753.48
2019-03-22T18:36:50.533Z,102763.82
2019-03-22T18:39:20.629Z,102758.88
2019-03-22T18:41:50.754Z,102757.11
2019-03-22T18:44:20.925Z,102753.08
2019-03-22T18:46:51.090Z,102749.48
2019-03-22T18:49:21.301Z,102741.89
2019-03-22T18:51:51.461Z,102749.95
2019-03-22T18:54:21.647Z,102758.45
2019-03-22T18:56:51.768Z,102749.55
2019-03-22T18:59:21.864Z,102759.84
2019-03-22T19:01:52.204Z,102759.84
2019-03-22T19:04:22.687Z,102762.53
2019-03-22T19:06:52.884Z,102761.68
2019-03-22T19:09:23.662Z,102761.66
2019-03-22T19:11:53.965Z,102760.78
2019-03-22T19:14:24.929Z,102763.93
2019-03-22T19:16:55.089Z,102772.87
2019-03-22T19:19:25.235Z,102772.87
2019-03-22T19:21:55.795Z,102771.98
2019-03-22T19:24:25.997Z,102768.37
2019-03-22T19:26:56.095Z,102767.96
2019-03-22T19:29:26.187Z,102763.47
2019-03-22T19:31:56.479Z,102762.61
2019-03-22T19:34:26.726Z,102766.64
2019-03-22T19:36:56.843Z,102767.98
2019-03-22T19:39:27.139Z,102769.80
2019-03-22T19:41:57.267Z,102766.64
2019-03-22T19:44:27.954Z,102767.58
2019-03-22T19:46:58.366Z,102765.77
2019-03-22T19:49:28.531Z,102777.86
2019-03-22T19:51:58.642Z,102781.88
2019-03-22T19:54:28.806Z,102781.88
2019-03-22T19:56:58.887Z,102786.79
2019-03-22T19:59:29.207Z,102788.16
2019-03-22T20:01:59.386Z,102789.97
2019-03-22T20:04:29.597Z,102798.46
2019-03-22T20:06:59.781Z,102788.59
2019-03-22T20:09:29.958Z,102793.09
2019-03-22T20:12:01.997Z,102796.67
2019-03-22T20:14:32.383Z,102800.70
2019-03-22T20:17:02.510Z,102799.36
2019-03-22T20:19:32.649Z,102794.46
2019-03-22T20:22:02.999Z,102793.99
2019-03-22T20:24:33.408Z,102790.43
2019-03-22T20:27:03.637Z,102789.97
2019-03-22T20:29:33.754Z,102786.42
2019-03-22T20:32:03.855Z,102785.08
2019-03-22T20:34:33.947Z,102786.42
2019-03-22T20:37:04.473Z,102787.34
2019-03-22T20:39:34.574Z,102785.55
2019-03-22T20:42:04.755Z,102784.66
2019-03-22T20:44:35.089Z,102784.66
2019-03-22T20:47:05.323Z,102784.19
2019-03-22T20:49:35.434Z,102787.34
2019-03-22T20:52:05.620Z,102784.66
2019-03-22T20:54:35.705Z,102788.21
2019-03-22T20:57:06.264Z,102790.45
2019-03-22T20:59:36.428Z,102788.21
2019-03-22T21:02:06.553Z,102794.05
2019-03-22T21:04:36.753Z,102788.21
2019-03-22T21:07:07.169Z,102793.12
2019-03-22T21:09:37.307Z,102798.02
2019-03-22T21:12:07.835Z,102800.30
2019-03-22T21:14:38.036Z,102800.32
2019-03-22T21:17:08.274Z,102795.88
2019-03-22T21:19:38.529Z,102792.33
2019-03-22T21:22:08.701Z,102792.73
2019-03-22T21:24:38.872Z,102794.08
2019-03-22T21:27:15.524Z,102801.72
2019-03-22T21:29:44.506Z,102803.06
2019-03-22T21:32:13.805Z,102801.28
2019-03-22T21:34:44.405Z,102800.41
2019-03-22T21:37:14.585Z,102802.62
2019-03-22T21:39:44.770Z,102803.55
2019-03-22T21:42:15.297Z,102808.87
2019-03-22T21:44:45.826Z,102804.84
2019-03-22T21:47:15.997Z,102807.03
2019-03-22T21:49:46.095Z,102798.10
2019-03-22T21:52:16.214Z,102806.16
2019-03-22T21:54:46.390Z,102804.81
2019-03-22T21:57:16.563Z,102806.16
2019-03-22T21:59:46.741Z,102807.50
2019-03-22T22:02:17.285Z,102805.28
2019-03-22T22:04:47.465Z,102811.55
2019-03-22T22:07:17.636Z,102805.30
2019-03-22T22:09:47.806Z,102807.09
2019-03-22T22:12:17.977Z,102804.41
2019-03-22T22:14:48.142Z,102805.30
2019-03-22T22:17:18.477Z,102807.11
2019-03-22T22:19:48.652Z,102804.92
2019-03-22T22:22:19.083Z,102812.51
2019-03-22T22:24:49.188Z,102811.16
2019-03-22T22:27:19.399Z,102818.81
2019-03-22T22:29:49.853Z,102809.91
2019-03-22T22:32:20.012Z,102816.62
2019-03-22T22:34:50.489Z,102814.38
2019-03-22T22:37:23.573Z,102820.23
2019-03-22T22:39:54.201Z,102818.02
2019-03-22T22:42:24.396Z,102815.77
2019-03-22T22:44:54.583Z,102819.36
2019-03-22T22:47:24.898Z,102823.38
2019-03-22T22:49:55.036Z,102826.56
2019-03-22T22:52:25.148Z,102826.02
2019-03-22T22:54:55.664Z,102821.58
2019-03-22T22:57:25.754Z,102824.27
2019-03-22T22:59:56.286Z,102816.20
2019-03-22T23:02:26.579Z,102819.80
2019-03-22T23:04:56.738Z,102829.16
2019-03-22T23:07:26.968Z,102824.73
2019-03-22T23:09:57.806Z,102822.05
2019-03-22T23:12:27.973Z,102819.36
2019-03-22T23:14:58.173Z,102815.77
2019-03-22T23:17:28.343Z,102813.08
2019-03-22T23:19:58.452Z,102814.89
2019-03-22T23:22:28.551Z,102809.52
2019-03-22T23:24:58.740Z,102808.64
2019-03-22T23:27:29.648Z,102812.20
2019-03-22T23:29:59.722Z,102807.70
2019-03-22T23:32:29.828Z,102800.99
2019-03-22T23:34:59.914Z,102808.56
2019-03-22T23:37:30.000Z,102800.99
2019-03-22T23:40:00.070Z,102800.13
2019-03-22T23:42:30.282Z,102807.70
2019-03-22T23:45:00.487Z,102800.56
2019-03-22T23:47:30.574Z,102799.16
2019-03-22T23:50:00.765Z,102793.84
2019-03-22T23:52:30.946Z,102795.19
2019-03-22T23:55:01.043Z,102796.53
2019-03-22T23:57:31.227Z,102793.38
